ESOK 192120Z AUTO 19008KT 9999 BKN013/// OVC018/// 05/05 Q1013